createdAt,value
2017-09-13T00:01:52.458Z,2.40
2017-09-13T00:04:53.739Z,2.20
2017-09-13T00:07:55.024Z,1.17
2017-09-13T00:10:56.337Z,1.60
2017-09-13T00:13:57.599Z,2.00
2017-09-13T00:16:59.591Z,2.07
2017-09-13T00:20:00.885Z,1.43
2017-09-13T00:23:02.162Z,2.30
2017-09-13T00:26:04.195Z,1.43
2017-09-13T00:29:05.469Z,1.57
2017-09-13T00:32:06.750Z,1.63
2017-09-13T00:35:08.002Z,1.53
2017-09-13T00:38:09.325Z,2.30
2017-09-13T00:41:11.334Z,1.60
2017-09-13T00:44:12.641Z,1.20
2017-09-13T00:47:15.011Z,1.90
2017-09-13T00:50:17.062Z,2.07
2017-09-13T00:53:18.518Z,1.60
2017-09-13T00:56:19.782Z,1.70
2017-09-13T00:59:21.865Z,1.67
2017-09-13T01:02:23.149Z,2.33
2017-09-13T01:05:24.430Z,1.63
2017-09-13T01:08:25.745Z,2.10
2017-09-13T01:11:27.433Z,1.73
2017-09-13T01:14:28.708Z,2.37
2017-09-13T01:17:29.966Z,2.20
2017-09-13T01:20:31.260Z,1.70
2017-09-13T01:23:32.579Z,2.03
2017-09-13T01:26:33.869Z,1.87
2017-09-13T01:29:35.169Z,2.73
2017-09-13T01:32:36.438Z,2.43
2017-09-13T01:35:37.717Z,1.73
2017-09-13T01:38:39.007Z,2.80
2017-09-13T01:41:40.289Z,1.90
2017-09-13T01:44:41.596Z,2.33
2017-09-13T01:47:43.603Z,2.07
2017-09-13T01:50:44.895Z,2.17
2017-09-13T01:53:46.168Z,2.13
2017-09-13T01:56:47.457Z,2.33
2017-09-13T01:59:49.023Z,2.17
2017-09-13T02:02:50.278Z,2.10
2017-09-13T02:05:51.738Z,3.07
2017-09-13T02:08:52.998Z,2.37
2017-09-13T02:11:54.326Z,2.33
2017-09-13T02:14:55.582Z,2.40
2017-09-13T02:17:56.878Z,2.00
2017-09-13T02:20:58.150Z,2.43
2017-09-13T02:24:00.167Z,2.10
2017-09-13T02:27:01.701Z,2.77
2017-09-13T02:30:02.993Z,2.57
2017-09-13T02:33:04.318Z,2.97
2017-09-13T02:36:05.606Z,1.90
2017-09-13T02:39:07.649Z,2.00
2017-09-13T02:42:08.907Z,2.50
2017-09-13T02:45:10.210Z,2.10
2017-09-13T02:48:11.516Z,3.20
2017-09-13T02:51:12.830Z,3.20
2017-09-13T02:54:14.095Z,2.37
2017-09-13T02:57:15.421Z,2.70
2017-09-13T03:00:16.962Z,2.30
2017-09-13T03:03:18.207Z,2.70
2017-09-13T03:06:19.532Z,2.20
2017-09-13T03:09:21.514Z,3.53
2017-09-13T03:12:22.811Z,2.23
2017-09-13T03:15:24.082Z,2.33
2017-09-13T03:18:25.382Z,2.40
2017-09-13T03:21:26.683Z,2.50
2017-09-13T03:24:28.749Z,2.70
2017-09-13T03:27:31.148Z,2.30
2017-09-13T03:30:32.459Z,2.20
2017-09-13T03:33:33.787Z,3.10
2017-09-13T03:36:35.080Z,2.47
2017-09-13T03:39:37.126Z,2.57
2017-09-13T03:42:38.389Z,2.00
2017-09-13T03:45:40.433Z,2.00
2017-09-13T03:48:41.690Z,1.83
2017-09-13T03:51:42.993Z,2.30
2017-09-13T03:54:44.279Z,1.93
2017-09-13T03:57:45.574Z,2.30
2017-09-13T04:00:46.842Z,3.00
2017-09-13T04:03:48.130Z,1.97
2017-09-13T04:06:49.414Z,1.67
2017-09-13T04:09:50.743Z,1.87
2017-09-13T04:12:52.786Z,1.70
2017-09-13T04:15:54.050Z,2.20
2017-09-13T04:18:55.422Z,2.00
2017-09-13T04:21:57.390Z,1.40
2017-09-13T04:24:58.658Z,1.73
2017-09-13T04:27:59.957Z,2.00
2017-09-13T04:31:01.234Z,1.57
2017-09-13T04:34:03.227Z,1.70
2017-09-13T04:37:04.511Z,1.50
2017-09-13T04:40:05.895Z,2.60
2017-09-13T04:43:07.947Z,1.97
2017-09-13T04:46:09.987Z,1.30
2017-09-13T04:49:11.235Z,1.37
2017-09-13T04:52:12.506Z,1.70
2017-09-13T04:55:13.778Z,1.40
2017-09-13T04:58:15.070Z,1.40
2017-09-13T05:01:16.334Z,1.80
2017-09-13T05:04:17.602Z,1.90
2017-09-13T05:07:19.754Z,1.40
2017-09-13T05:10:21.006Z,0.90
2017-09-13T05:13:22.373Z,0.90
2017-09-13T05:16:24.394Z,0.90
2017-09-13T05:19:25.701Z,1.53
2017-09-13T05:22:27.725Z,1.30
2017-09-13T05:25:29.030Z,1.30
2017-09-13T05:28:30.302Z,0.83
2017-09-13T05:31:31.599Z,1.10
2017-09-13T05:34:33.622Z,0.90
2017-09-13T05:37:34.899Z,1.20
2017-09-13T05:40:36.178Z,1.17
2017-09-13T05:43:37.470Z,0.90
2017-09-13T05:46:39.584Z,0.80
2017-09-13T05:49:41.581Z,0.90
2017-09-13T05:52:43.215Z,0.90
2017-09-13T05:55:45.215Z,0.70
2017-09-13T05:58:46.513Z,0.77
2017-09-13T06:01:48.497Z,0.80
2017-09-13T06:04:49.786Z,0.60
2017-09-13T06:07:51.023Z,0.90
2017-09-13T06:10:52.397Z,0.70
2017-09-13T06:13:53.799Z,1.10
2017-09-13T06:16:55.062Z,0.90
2017-09-13T06:19:56.463Z,0.63
2017-09-13T06:22:57.765Z,0.70
2017-09-13T06:25:59.028Z,0.70
2017-09-13T06:29:00.286Z,0.60
2017-09-13T06:32:01.587Z,0.70
2017-09-13T06:35:02.843Z,1.00
2017-09-13T06:38:04.139Z,1.17
2017-09-13T06:41:05.414Z,0.80
2017-09-13T06:44:07.419Z,0.77
2017-09-13T06:47:08.705Z,0.70
2017-09-13T06:50:09.962Z,1.00
2017-09-13T06:53:11.254Z,0.80
2017-09-13T06:56:12.522Z,1.23
2017-09-13T06:59:13.821Z,1.20
2017-09-13T07:02:15.830Z,1.00
2017-09-13T07:05:17.119Z,1.27
2017-09-13T07:08:18.406Z,1.93
2017-09-13T07:11:19.755Z,1.57
2017-09-13T07:14:21.017Z,1.83
2017-09-13T07:17:22.343Z,2.20
2017-09-13T07:20:24.518Z,2.43
2017-09-13T07:23:26.554Z,2.00
2017-09-13T07:26:27.830Z,2.50
2017-09-13T07:29:29.844Z,3.37
2017-09-13T07:32:31.154Z,1.80
2017-09-13T07:35:32.395Z,1.90
2017-09-13T07:38:33.682Z,2.10
2017-09-13T07:41:34.965Z,2.17
2017-09-13T07:44:36.269Z,2.30
2017-09-13T07:47:37.553Z,3.23
2017-09-13T07:50:38.819Z,2.10
2017-09-13T07:53:40.086Z,2.13
2017-09-13T07:56:42.083Z,2.57
2017-09-13T07:59:43.735Z,2.57
2017-09-13T08:02:45.008Z,3.30
2017-09-13T08:05:46.334Z,2.83
2017-09-13T08:08:47.650Z,2.43
2017-09-13T08:11:49.694Z,3.17
2017-09-13T08:14:50.994Z,2.83
2017-09-13T08:17:52.377Z,3.47
2017-09-13T08:20:53.633Z,2.97
2017-09-13T08:23:54.926Z,3.23
2017-09-13T08:26:56.230Z,3.47
2017-09-13T08:29:57.548Z,3.60
2017-09-13T08:32:58.998Z,3.27
2017-09-13T08:36:00.275Z,3.90
2017-09-13T08:39:01.818Z,3.50
2017-09-13T08:42:03.078Z,4.57
2017-09-13T08:45:05.138Z,4.80
2017-09-13T08:48:06.443Z,4.30
2017-09-13T08:51:07.759Z,4.60
2017-09-13T08:54:09.046Z,4.60
2017-09-13T08:57:10.306Z,4.83
2017-09-13T09:00:11.576Z,4.90
2017-09-13T09:03:12.848Z,4.80
2017-09-13T09:06:14.298Z,4.90
2017-09-13T09:09:16.298Z,4.90
2017-09-13T09:12:18.377Z,4.80
2017-09-13T09:15:20.381Z,3.77
2017-09-13T09:18:21.696Z,5.13
2017-09-13T09:21:23.706Z,6.27
2017-09-13T09:24:24.975Z,4.73
2017-09-13T09:27:26.218Z,4.30
2017-09-13T09:30:27.484Z,4.70
2017-09-13T09:33:28.898Z,4.07
2017-09-13T09:36:30.177Z,4.97
2017-09-13T09:39:31.494Z,3.83
2017-09-13T09:42:32.739Z,4.47
2017-09-13T09:45:33.995Z,4.20
2017-09-13T09:48:35.250Z,4.07
2017-09-13T09:51:36.530Z,3.70
2017-09-13T09:54:38.555Z,3.40
2017-09-13T09:57:39.838Z,3.13
2017-09-13T10:00:41.400Z,2.90
2017-09-13T10:03:42.666Z,3.17
2017-09-13T10:06:44.695Z,2.80
2017-09-13T10:09:46.007Z,2.27
2017-09-13T10:12:47.356Z,3.03
2017-09-13T10:15:48.600Z,2.27
2017-09-13T10:18:49.850Z,3.47
2017-09-13T10:21:51.127Z,2.93
2017-09-13T10:24:52.410Z,2.80
2017-09-13T10:27:54.401Z,3.40
2017-09-13T10:30:56.442Z,2.90
2017-09-13T10:33:58.586Z,3.60
2017-09-13T10:36:59.838Z,2.60
2017-09-13T10:40:01.131Z,3.23
2017-09-13T10:43:02.406Z,3.03
2017-09-13T10:46:03.706Z,3.10
2017-09-13T10:49:05.720Z,2.53
2017-09-13T10:52:07.022Z,3.00
2017-09-13T10:55:09.081Z,2.87
2017-09-13T10:58:10.351Z,2.30
2017-09-13T11:01:11.739Z,2.43
2017-09-13T11:04:12.985Z,3.20
2017-09-13T11:07:14.262Z,2.90
2017-09-13T11:10:15.521Z,3.80
2017-09-13T11:13:16.932Z,2.80
2017-09-13T11:16:18.254Z,4.00
2017-09-13T11:19:19.527Z,3.40
2017-09-13T11:22:20.767Z,2.80
2017-09-13T11:25:22.088Z,2.43
2017-09-13T11:28:24.093Z,2.97
2017-09-13T11:31:25.390Z,2.90
2017-09-13T11:34:27.431Z,3.37
2017-09-13T11:37:28.749Z,2.70
2017-09-13T11:40:30.011Z,3.13
2017-09-13T11:43:31.298Z,4.63
2017-09-13T11:46:32.567Z,3.00
2017-09-13T11:49:33.897Z,2.23
2017-09-13T11:52:35.932Z,1.83
2017-09-13T11:55:37.273Z,3.60
2017-09-13T11:58:38.495Z,2.60
2017-09-13T12:01:39.790Z,2.70
2017-09-13T12:04:41.414Z,2.73
2017-09-13T12:07:42.673Z,2.73
2017-09-13T12:10:43.986Z,2.57
2017-09-13T12:13:45.285Z,2.20
2017-09-13T12:16:46.569Z,2.00
2017-09-13T12:19:47.811Z,1.90
2017-09-13T12:22:49.846Z,2.93
2017-09-13T12:25:51.830Z,2.10
2017-09-13T12:28:53.111Z,2.23
2017-09-13T12:31:54.406Z,3.50
2017-09-13T12:34:55.701Z,2.03
2017-09-13T12:37:57.722Z,1.90
2017-09-13T12:40:58.977Z,2.07
2017-09-13T12:44:00.260Z,2.47
2017-09-13T12:47:02.239Z,1.63
2017-09-13T12:50:03.540Z,2.00
2017-09-13T12:53:05.036Z,2.20
2017-09-13T12:56:06.259Z,1.70
2017-09-13T12:59:07.535Z,2.33
2017-09-13T13:02:08.795Z,2.17
2017-09-13T13:05:10.144Z,2.07
2017-09-13T13:08:11.442Z,2.47
2017-09-13T13:11:12.740Z,2.03
2017-09-13T13:14:14.086Z,2.80
2017-09-13T13:17:16.090Z,2.03
2017-09-13T13:20:17.355Z,2.40
2017-09-13T13:23:18.628Z,1.80
2017-09-13T13:26:20.623Z,2.67
2017-09-13T13:29:22.194Z,1.90
2017-09-13T13:32:23.436Z,2.40
2017-09-13T13:35:24.706Z,2.37
2017-09-13T13:38:25.966Z,2.10
2017-09-13T13:41:27.259Z,2.93
2017-09-13T13:44:28.525Z,2.03
2017-09-13T13:47:36.913Z,2.43
2017-09-13T13:50:38.886Z,2.47
2017-09-13T13:53:40.173Z,1.87
2017-09-13T13:56:41.457Z,1.73
2017-09-13T13:59:43.458Z,2.63
2017-09-13T14:02:44.865Z,2.50
2017-09-13T14:05:46.146Z,2.97
2017-09-13T14:08:47.515Z,2.07
2017-09-13T14:11:48.788Z,2.83
2017-09-13T14:14:50.098Z,2.40
2017-09-13T14:17:51.354Z,2.27
2017-09-13T14:20:52.911Z,2.27
2017-09-13T14:23:54.159Z,2.10
2017-09-13T14:26:55.442Z,1.50
2017-09-13T14:29:57.045Z,2.03
2017-09-13T14:32:58.322Z,2.03
2017-09-13T14:35:59.695Z,1.87
2017-09-13T14:39:00.957Z,2.10
2017-09-13T14:42:02.270Z,1.67
2017-09-13T14:45:03.561Z,2.17
2017-09-13T14:48:04.854Z,1.33
2017-09-13T14:51:06.150Z,1.60
2017-09-13T14:54:08.307Z,1.63
2017-09-13T14:57:10.434Z,1.73
2017-09-13T15:00:11.691Z,2.20
2017-09-13T15:03:13.018Z,1.90
2017-09-13T15:06:15.089Z,2.07
2017-09-13T15:09:16.426Z,1.70
2017-09-13T15:12:18.494Z,2.00
2017-09-13T15:15:20.643Z,1.97
2017-09-13T15:18:21.964Z,1.50
2017-09-13T15:21:23.327Z,1.73
2017-09-13T15:24:24.961Z,1.77
2017-09-13T15:27:26.237Z,2.27
2017-09-13T15:30:27.578Z,1.70
2017-09-13T15:33:28.874Z,2.00
2017-09-13T15:36:30.929Z,1.70
2017-09-13T15:39:32.979Z,2.27
2017-09-13T15:42:34.358Z,1.93
2017-09-13T15:45:36.425Z,1.53
2017-09-13T15:48:38.550Z,1.70
2017-09-13T15:51:39.832Z,1.90
2017-09-13T15:54:41.917Z,1.60
2017-09-13T15:57:43.201Z,2.47
2017-09-13T16:00:44.515Z,1.50
2017-09-13T16:03:45.966Z,1.77
2017-09-13T16:06:47.331Z,1.37
2017-09-13T16:09:48.668Z,1.53
2017-09-13T16:12:49.978Z,1.60
2017-09-13T16:15:51.331Z,2.10
2017-09-13T16:18:52.623Z,1.07
2017-09-13T16:21:53.942Z,1.80
2017-09-13T16:24:55.992Z,1.30
2017-09-13T16:27:57.307Z,1.40
2017-09-13T16:30:58.752Z,1.43
2017-09-13T16:34:00.071Z,1.50
2017-09-13T16:37:02.187Z,1.70
2017-09-13T16:40:03.504Z,1.63
2017-09-13T16:43:04.842Z,1.30
2017-09-13T16:46:06.897Z,1.57
2017-09-13T16:49:08.947Z,1.43
2017-09-13T16:52:10.252Z,2.30
2017-09-13T16:55:11.569Z,2.13
2017-09-13T16:58:13.609Z,1.20
2017-09-13T17:01:14.924Z,2.10
2017-09-13T17:04:16.214Z,1.80
2017-09-13T17:07:17.549Z,1.40
2017-09-13T17:10:18.834Z,1.60
2017-09-13T17:13:20.871Z,1.70
2017-09-13T17:16:22.322Z,2.53
2017-09-13T17:19:23.642Z,2.10
2017-09-13T17:22:25.051Z,1.70
2017-09-13T17:25:27.094Z,1.80
2017-09-13T17:28:28.425Z,2.60
2017-09-13T17:31:29.727Z,1.60
2017-09-13T17:34:31.092Z,2.97
2017-09-13T17:37:32.476Z,1.87
2017-09-13T17:40:33.803Z,1.23
2017-09-13T17:43:35.188Z,2.47
2017-09-13T17:46:36.534Z,1.70
2017-09-13T17:49:37.875Z,1.93
2017-09-13T17:52:39.146Z,1.90
2017-09-13T17:55:40.490Z,2.30
2017-09-13T17:58:41.783Z,2.37
2017-09-13T18:01:43.117Z,2.33
2017-09-13T18:04:45.129Z,2.23
2017-09-13T18:07:46.460Z,2.33
2017-09-13T18:10:47.715Z,2.40
2017-09-13T18:13:49.092Z,3.33
2017-09-13T18:16:50.413Z,2.07
2017-09-13T18:19:51.706Z,3.00
2017-09-13T18:22:52.985Z,2.97
2017-09-13T18:25:54.309Z,3.07
2017-09-13T18:28:55.661Z,3.13
2017-09-13T18:31:57.861Z,3.60
2017-09-13T18:34:59.227Z,2.60
2017-09-13T18:38:00.888Z,2.83
2017-09-13T18:41:02.233Z,3.20
2017-09-13T18:44:03.561Z,3.60
2017-09-13T18:47:05.588Z,3.33
2017-09-13T18:50:06.904Z,3.53
2017-09-13T18:53:08.224Z,3.10
2017-09-13T18:56:09.559Z,4.00
2017-09-13T18:59:11.623Z,2.97
2017-09-13T19:02:12.966Z,2.90
2017-09-13T19:05:15.009Z,3.20
2017-09-13T19:08:16.326Z,3.47
2017-09-13T19:11:17.622Z,3.30
2017-09-13T19:14:19.091Z,3.77
2017-09-13T19:17:21.122Z,3.40
2017-09-13T19:20:22.398Z,3.13
2017-09-13T19:23:23.679Z,3.03
2017-09-13T19:26:24.946Z,3.03
2017-09-13T19:29:26.270Z,3.40
2017-09-13T19:32:27.595Z,3.70
2017-09-13T19:35:28.831Z,3.50
2017-09-13T19:38:30.134Z,4.60
2017-09-13T19:41:31.383Z,4.17
2017-09-13T19:44:32.683Z,3.33
2017-09-13T19:47:33.993Z,3.30
2017-09-13T19:50:35.256Z,3.63
2017-09-13T19:53:36.543Z,3.20
2017-09-13T19:56:38.567Z,3.70
2017-09-13T19:59:40.671Z,3.57
2017-09-13T20:02:41.956Z,3.17
2017-09-13T20:05:43.285Z,3.23
2017-09-13T20:08:44.602Z,2.97
2017-09-13T20:11:45.883Z,3.63
2017-09-13T20:14:47.967Z,2.57
2017-09-13T20:17:49.247Z,3.03
2017-09-13T20:20:50.527Z,2.87
2017-09-13T20:23:51.907Z,3.53
2017-09-13T20:26:53.180Z,3.53
2017-09-13T20:29:54.746Z,2.87
2017-09-13T20:32:56.006Z,3.73
2017-09-13T20:35:57.318Z,2.97
2017-09-13T20:38:58.579Z,2.50
2017-09-13T20:41:59.882Z,2.67
2017-09-13T20:45:01.899Z,2.77
2017-09-13T20:48:03.223Z,2.80
2017-09-13T20:51:04.534Z,3.60
2017-09-13T20:54:05.820Z,3.70
2017-09-13T20:57:07.146Z,3.03
2017-09-13T21:00:09.145Z,3.53
2017-09-13T21:03:10.443Z,3.40
2017-09-13T21:06:11.886Z,3.43
2017-09-13T21:09:13.156Z,3.47
2017-09-13T21:12:14.498Z,3.03
2017-09-13T21:15:15.807Z,3.30
2017-09-13T21:18:17.091Z,3.97
2017-09-13T21:21:18.376Z,2.80
2017-09-13T21:24:19.685Z,4.50
2017-09-13T21:27:20.963Z,3.70
2017-09-13T21:30:22.967Z,2.77
2017-09-13T21:33:24.995Z,3.40
2017-09-13T21:36:26.299Z,3.93
2017-09-13T21:39:27.978Z,4.20
2017-09-13T21:42:29.277Z,3.67
2017-09-13T21:45:30.558Z,3.80
2017-09-13T21:48:31.838Z,4.20
2017-09-13T21:51:33.168Z,4.17
2017-09-13T21:54:34.516Z,3.53
2017-09-13T21:57:35.865Z,4.27
2017-09-13T22:00:37.413Z,4.37
2017-09-13T22:03:38.754Z,4.17
2017-09-13T22:06:40.083Z,4.53
2017-09-13T22:09:42.173Z,6.20
2017-09-13T22:12:43.552Z,5.27
2017-09-13T22:15:44.895Z,5.47
2017-09-13T22:18:46.240Z,5.10
2017-09-13T22:21:47.550Z,4.60
2017-09-13T22:24:49.710Z,3.83
2017-09-13T22:34:06.229Z,4.97
2017-09-13T22:37:08.356Z,6.23
2017-09-13T22:40:10.393Z,4.97
2017-09-13T22:43:11.709Z,5.93
2017-09-13T22:46:13.006Z,5.23
2017-09-13T22:49:14.303Z,4.47
2017-09-13T22:52:15.634Z,3.47
2017-09-13T22:55:17.686Z,3.73
2017-09-13T22:58:18.983Z,5.20
2017-09-13T23:01:20.396Z,5.13
2017-09-13T23:04:22.414Z,3.87
2017-09-13T23:07:23.734Z,3.50
2017-09-13T23:13:32.837Z,3.23
2017-09-13T23:16:34.160Z,4.27
2017-09-13T23:19:35.472Z,3.03
2017-09-13T23:22:37.484Z,3.40
2017-09-13T23:25:38.819Z,3.37
2017-09-13T23:28:40.095Z,3.50
2017-09-13T23:31:41.430Z,3.70
2017-09-13T23:34:42.713Z,3.00
2017-09-13T23:37:44.024Z,3.63
2017-09-13T23:40:45.341Z,3.27
2017-09-13T23:43:46.623Z,3.77
2017-09-13T23:46:48.734Z,2.67
2017-09-13T23:49:50.018Z,3.47
2017-09-13T23:52:51.343Z,3.20
2017-09-13T23:55:52.654Z,3.13
2017-09-13T23:58:53.962Z,3.47
